createdAt,value
2022-09-12T00:02:14.124Z,101699.69
2022-09-12T00:04:43.916Z,101693.72
2022-09-12T00:07:14.941Z,101703.22
2022-09-12T00:09:43.528Z,101696.31
2022-09-12T00:12:13.323Z,101700.53
2022-09-12T00:14:42.960Z,101696.22
2022-09-12T00:17:12.730Z,101696.28
2022-09-12T00:19:43.314Z,101693.56
2022-09-12T00:22:13.046Z,101693.69
2022-09-12T00:24:44.770Z,101686.63
2022-09-12T00:27:13.082Z,101692.75
2022-09-12T00:29:42.673Z,101689.22
2022-09-12T00:32:12.560Z,101684.03
2022-09-12T00:34:42.167Z,101678.09
2022-09-12T00:37:11.995Z,101675.53
2022-09-12T00:39:41.793Z,101674.75
2022-09-12T00:42:13.365Z,101673.03
2022-09-12T00:44:49.312Z,101680.06
2022-09-12T00:47:30.667Z,101668.66
2022-09-12T00:50:06.068Z,101670.34
2022-09-12T00:52:37.119Z,101662.59
2022-09-12T00:55:11.009Z,101661.91
2022-09-12T00:57:46.063Z,101662.91
2022-09-12T01:00:20.023Z,101657.72
2022-09-12T01:02:53.672Z,101656.91
2022-09-12T01:05:25.977Z,101651.78
2022-09-12T01:07:58.216Z,101651.75
2022-09-12T01:10:26.822Z,101648.22
2022-09-12T01:12:57.732Z,101648.91
2022-09-12T01:15:25.754Z,101645.31
2022-09-12T01:18:07.692Z,101643.47
2022-09-12T01:20:49.576Z,101647.63
2022-09-12T01:23:48.678Z,101650.28
2022-09-12T01:26:55.451Z,101652.69
2022-09-12T01:29:50.683Z,101659.88
2022-09-12T01:32:26.518Z,101658.03
2022-09-12T01:35:01.997Z,101656.41
2022-09-12T01:37:38.732Z,101652.03
2022-09-12T01:40:16.226Z,101646.03
2022-09-12T01:42:53.577Z,101650.28
2022-09-12T01:45:29.467Z,101651.13
2022-09-12T01:48:06.211Z,101642.63
2022-09-12T01:50:39.471Z,101648.00
2022-09-12T01:53:15.567Z,101645.44
2022-09-12T01:55:51.349Z,101643.78
2022-09-12T01:58:23.690Z,101634.28
2022-09-12T02:00:59.689Z,101638.63
2022-09-12T02:03:34.556Z,101638.66
2022-09-12T02:06:09.387Z,101637.78
2022-09-12T02:08:43.931Z,101641.25
2022-09-12T02:11:15.088Z,101651.56
2022-09-12T02:13:50.917Z,101635.25
2022-09-12T02:16:26.766Z,101637.88
2022-09-12T02:19:05.287Z,101634.47
2022-09-12T02:21:38.637Z,101632.84
2022-09-12T02:24:11.673Z,101630.25
2022-09-12T02:26:45.856Z,101627.78
2022-09-12T02:29:16.916Z,101625.19
2022-09-12T02:31:48.910Z,101629.53
2022-09-12T02:34:30.180Z,101624.34
2022-09-12T02:37:04.762Z,101617.56
2022-09-12T02:39:35.213Z,101621.09
2022-09-12T02:42:04.633Z,101633.34
2022-09-12T02:44:35.251Z,101635.09
2022-09-12T02:47:07.160Z,101638.59
2022-09-12T02:49:39.830Z,101633.34
2022-09-12T02:52:08.068Z,101626.28
2022-09-12T02:54:38.361Z,101638.59
2022-09-12T02:57:21.903Z,101632.53
2022-09-12T02:59:55.503Z,101632.66
2022-09-12T03:02:31.779Z,101628.31
2022-09-12T03:05:28.136Z,101621.44
2022-09-12T03:08:27.352Z,101624.94
2022-09-12T03:11:10.464Z,101622.41
2022-09-12T03:13:42.649Z,101620.66
2022-09-12T03:16:18.503Z,101619.81
2022-09-12T03:18:54.196Z,101626.66
2022-09-12T03:21:31.913Z,101622.09
2022-09-12T03:24:12.617Z,101624.75
2022-09-12T03:26:46.031Z,101618.78
2022-09-12T03:29:17.107Z,101612.78
2022-09-12T03:31:51.250Z,101611.06
2022-09-12T03:34:23.087Z,101609.31
2022-09-12T03:36:55.995Z,101606.78
2022-09-12T03:39:26.973Z,101608.59
2022-09-12T03:41:58.103Z,101605.09
2022-09-12T03:44:27.771Z,101614.59
2022-09-12T03:46:57.281Z,101622.16
2022-09-12T03:49:27.132Z,101616.09
2022-09-12T03:51:58.111Z,101612.69
2022-09-12T03:54:26.659Z,101619.75
2022-09-12T03:56:56.242Z,101610.19
2022-09-12T03:59:26.051Z,101618.84
2022-09-12T04:01:55.719Z,101616.28
2022-09-12T04:04:25.786Z,101621.53
2022-09-12T04:06:55.579Z,101612.78
2022-09-12T04:09:26.895Z,101614.63
2022-09-12T04:11:55.286Z,101613.84
2022-09-12T04:14:25.366Z,101616.47
2022-09-12T04:16:55.016Z,101618.22
2022-09-12T04:19:24.778Z,101624.19
2022-09-12T04:21:54.640Z,101624.84
2022-09-12T04:24:25.925Z,101626.72
2022-09-12T04:26:54.473Z,101623.34
2022-09-12T04:29:25.097Z,101611.31
2022-09-12T04:31:55.324Z,101621.81
2022-09-12T04:34:24.657Z,101615.59
2022-09-12T04:36:54.454Z,101618.09
2022-09-12T04:39:24.379Z,101621.59
2022-09-12T04:41:55.351Z,101619.91
2022-09-12T04:44:23.904Z,101619.06
2022-09-12T04:46:53.746Z,101624.19
2022-09-12T04:49:23.991Z,101619.81
2022-09-12T04:51:54.122Z,101616.38
2022-09-12T04:54:24.995Z,101621.66
2022-09-12T04:56:56.227Z,101620.81
2022-09-12T04:59:26.504Z,101615.66
2022-09-12T05:01:57.428Z,101615.69
2022-09-12T05:04:25.416Z,101613.94
2022-09-12T05:06:54.780Z,101618.28
2022-09-12T05:09:24.266Z,101618.28
2022-09-12T05:12:08.918Z,101625.91
2022-09-12T05:14:38.343Z,101624.13
2022-09-12T05:17:07.066Z,101624.91
2022-09-12T05:19:37.007Z,101625.72
2022-09-12T05:22:07.760Z,101624.81
2022-09-12T05:24:39.331Z,101629.88
2022-09-12T05:27:10.424Z,101627.19
2022-09-12T05:29:42.975Z,101622.69
2022-09-12T05:32:13.478Z,101620.88
2022-09-12T05:34:43.626Z,101627.53
2022-09-12T05:37:14.343Z,101631.78
2022-09-12T05:39:44.114Z,101630.81
2022-09-12T05:42:14.284Z,101635.84
2022-09-12T05:44:45.463Z,101643.59
2022-09-12T05:47:13.803Z,101640.06
2022-09-12T05:49:45.170Z,101633.13
2022-09-12T05:52:15.249Z,101638.44
2022-09-12T05:54:45.090Z,101644.56
2022-09-12T05:57:14.884Z,101636.72
2022-09-12T05:59:46.385Z,101647.13
2022-09-12T06:02:14.668Z,101638.47
2022-09-12T06:04:44.168Z,101646.97
2022-09-12T06:07:14.555Z,101639.13
2022-09-12T06:09:45.449Z,101642.59
2022-09-12T06:12:15.292Z,101645.13
2022-09-12T06:14:46.567Z,101641.44
2022-09-12T06:17:15.257Z,101640.25
2022-09-12T06:19:45.554Z,101647.00
2022-09-12T06:22:14.975Z,101653.53
2022-09-12T06:24:44.835Z,101648.22
2022-09-12T06:27:14.734Z,101638.41
2022-09-12T06:29:44.363Z,101641.00
2022-09-12T06:32:15.630Z,101652.06
2022-09-12T06:34:48.419Z,101655.53
2022-09-12T06:37:16.596Z,101651.72
2022-09-12T06:39:46.965Z,101657.78
2022-09-12T06:42:16.405Z,101656.22
2022-09-12T06:45:00.151Z,101663.72
2022-09-12T06:47:32.962Z,101664.25
2022-09-12T06:50:04.456Z,101671.78
2022-09-12T06:52:35.444Z,101672.47
2022-09-12T06:55:07.321Z,101676.47
2022-09-12T06:57:38.880Z,101679.13
2022-09-12T07:00:11.741Z,101676.78
2022-09-12T07:02:43.730Z,101686.50
2022-09-12T07:05:15.494Z,101686.72
2022-09-12T07:07:46.433Z,101675.63
2022-09-12T07:10:22.123Z,101690.59
2022-09-12T07:12:53.354Z,101683.13
2022-09-12T07:15:24.224Z,101671.63
2022-09-12T07:17:56.946Z,101662.72
2022-09-12T07:20:28.150Z,101624.19
2022-09-12T07:22:59.081Z,101587.19
2022-09-12T07:25:29.973Z,101569.97
2022-09-12T07:28:00.967Z,101552.34
2022-09-12T07:30:31.944Z,101541.88
2022-09-12T07:33:04.368Z,101547.94
2022-09-12T07:35:35.595Z,101530.69
2022-09-12T07:38:06.530Z,101531.31
2022-09-12T07:40:37.399Z,101519.41
2022-09-12T07:43:08.337Z,101517.31
2022-09-12T07:45:41.776Z,101505.09
2022-09-12T07:48:14.209Z,101500.00
2022-09-12T07:50:45.257Z,101500.53
2022-09-12T07:53:16.154Z,101495.03
2022-09-12T07:55:54.445Z,101493.13
2022-09-12T07:58:25.654Z,101497.81
2022-09-12T08:00:56.545Z,101500.66
2022-09-12T08:03:28.804Z,101500.09
2022-09-12T08:06:05.125Z,101498.56
2022-09-12T08:08:36.266Z,101495.75
2022-09-12T08:11:08.471Z,101490.69
2022-09-12T08:13:40.863Z,101504.50
2022-09-12T08:16:14.487Z,101506.22
2022-09-12T08:18:46.941Z,101513.16
2022-09-12T08:21:19.437Z,101513.88
2022-09-12T08:23:53.246Z,101508.50
2022-09-12T08:26:24.679Z,101508.50
2022-09-12T08:28:55.854Z,101513.34
2022-09-12T08:31:28.287Z,101516.00
2022-09-12T08:34:00.825Z,101518.03
2022-09-12T08:36:31.857Z,101516.56
2022-09-12T08:39:04.415Z,101527.22
2022-09-12T08:41:37.693Z,101525.28
2022-09-12T08:44:29.523Z,101527.81
2022-09-12T08:47:10.160Z,101537.97
2022-09-12T08:49:55.100Z,101531.97
2022-09-12T08:52:30.479Z,101531.56
2022-09-12T08:55:02.194Z,101539.53
2022-09-12T08:57:33.494Z,101535.06
2022-09-12T09:00:06.669Z,101536.19
2022-09-12T09:03:07.974Z,101524.69
2022-09-12T09:05:48.873Z,101514.13
2022-09-12T09:08:30.655Z,101516.03
2022-09-12T09:11:06.156Z,101511.69
2022-09-12T09:14:05.408Z,101510.06
2022-09-12T09:16:38.713Z,101508.22
2022-09-12T09:19:15.643Z,101512.84
2022-09-12T09:21:52.485Z,101499.94
2022-09-12T09:24:26.501Z,101500.59
2022-09-12T09:27:00.253Z,101497.97
2022-09-12T09:29:35.037Z,101490.88
2022-09-12T09:32:13.382Z,101488.19
2022-09-12T09:34:44.380Z,101493.78
2022-09-12T09:37:20.806Z,101492.19
2022-09-12T09:40:00.325Z,101493.25
2022-09-12T09:42:39.163Z,101485.28
2022-09-12T09:45:16.083Z,101487.44
2022-09-12T09:47:46.755Z,101487.06
2022-09-12T09:50:17.674Z,101491.75
2022-09-12T09:52:50.370Z,101490.53
2022-09-12T09:55:24.393Z,101493.28
2022-09-12T09:57:55.325Z,101487.09
2022-09-12T10:00:31.789Z,101495.41
2022-09-12T10:03:17.121Z,101485.31
2022-09-12T10:05:48.759Z,101484.81
2022-09-12T10:08:27.331Z,101484.41
2022-09-12T10:11:01.826Z,101490.34
2022-09-12T10:13:42.431Z,101483.47
2022-09-12T10:16:22.186Z,101481.19
2022-09-12T10:18:54.041Z,101490.56
2022-09-12T10:21:35.761Z,101492.44
2022-09-12T10:24:20.059Z,101486.72
2022-09-12T10:26:56.536Z,101495.44
2022-09-12T10:29:29.831Z,101487.88
2022-09-12T10:32:02.450Z,101484.84
2022-09-12T10:34:36.216Z,101490.03
2022-09-12T10:37:08.969Z,101489.25
2022-09-12T10:39:41.345Z,101480.75
2022-09-12T10:42:17.527Z,101476.81
2022-09-12T10:44:55.542Z,101481.94
2022-09-12T10:47:32.157Z,101484.97
2022-09-12T10:50:23.051Z,101484.75
2022-09-12T10:52:54.431Z,101485.13
2022-09-12T10:55:34.062Z,101493.75
2022-09-12T10:58:17.228Z,101487.91
2022-09-12T11:00:51.996Z,101487.97
2022-09-12T11:03:25.391Z,101488.06
2022-09-12T11:05:58.274Z,101491.69
2022-09-12T11:08:51.603Z,101487.19
2022-09-12T11:11:40.322Z,101488.19
2022-09-12T11:14:26.143Z,101484.69
2022-09-12T11:17:00.683Z,101482.16
2022-09-12T11:19:47.061Z,101487.84
2022-09-12T11:22:37.839Z,101496.16
2022-09-12T11:25:28.293Z,101501.56
2022-09-12T11:28:13.235Z,101484.34
2022-09-12T11:30:55.242Z,101490.16
2022-09-12T11:33:38.619Z,101495.88
2022-09-12T11:36:21.598Z,101485.25
2022-09-12T11:38:54.406Z,101493.44
2022-09-12T11:41:29.433Z,101490.06
2022-09-12T11:44:05.227Z,101489.97
2022-09-12T11:46:37.266Z,101488.63
2022-09-12T11:49:18.435Z,101486.81
2022-09-12T11:51:51.745Z,101480.34
2022-09-12T11:54:27.975Z,101478.56
2022-09-12T11:57:05.560Z,101473.19
2022-09-12T11:59:43.730Z,101479.56
2022-09-12T12:02:23.823Z,101481.81
2022-09-12T12:05:04.227Z,101484.09
2022-09-12T12:07:45.360Z,101478.72
2022-09-12T12:10:26.649Z,101472.59
2022-09-12T12:12:58.305Z,101479.47
2022-09-12T12:15:31.226Z,101468.06
2022-09-12T12:18:08.204Z,101472.91
2022-09-12T12:20:39.102Z,101475.69
2022-09-12T12:23:23.978Z,101461.91
2022-09-12T12:25:56.519Z,101457.41
2022-09-12T12:28:50.527Z,101461.97
2022-09-12T12:31:23.732Z,101447.41
2022-09-12T12:34:23.509Z,101452.34
2022-09-12T12:36:54.751Z,101452.91
2022-09-12T12:40:04.725Z,101451.16
2022-09-12T12:43:07.628Z,101452.81
2022-09-12T12:46:10.278Z,101446.91
2022-09-12T12:49:16.453Z,101436.00
2022-09-12T12:51:57.802Z,101440.69
2022-09-12T12:54:54.658Z,101438.03
2022-09-12T12:57:32.198Z,101435.72
2022-09-12T13:00:06.902Z,101434.97
2022-09-12T13:02:37.286Z,101433.84
2022-09-12T13:05:19.068Z,101434.03
2022-09-12T13:07:56.044Z,101434.72
2022-09-12T13:10:29.458Z,101423.91
2022-09-12T13:13:03.327Z,101426.84
2022-09-12T13:15:51.949Z,101415.31
2022-09-12T13:18:28.657Z,101416.69
2022-09-12T13:21:10.154Z,101417.44
2022-09-12T13:23:42.679Z,101411.91
2022-09-12T13:26:15.433Z,101410.97
2022-09-12T13:28:46.642Z,101408.81
2022-09-12T13:31:23.062Z,101403.44
2022-09-12T13:33:55.851Z,101408.94
2022-09-12T13:36:48.983Z,101396.78
2022-09-12T13:39:22.699Z,101390.56
2022-09-12T13:42:16.992Z,101377.69
2022-09-12T13:44:52.382Z,101374.25
2022-09-12T13:47:27.376Z,101369.63
2022-09-12T13:49:58.808Z,101375.91
2022-09-12T13:52:31.918Z,101367.84
2022-09-12T13:55:09.008Z,101367.94
2022-09-12T13:57:41.627Z,101368.75
2022-09-12T14:00:16.159Z,101370.59
2022-09-12T14:02:44.867Z,101355.03
2022-09-12T14:05:20.074Z,101342.47
2022-09-12T14:07:56.636Z,101343.91
2022-09-12T14:10:33.009Z,101339.44
2022-09-12T14:13:06.049Z,101342.16
2022-09-12T14:15:38.166Z,101339.59
2022-09-12T14:18:21.472Z,101341.00
2022-09-12T14:20:56.925Z,101337.28
2022-09-12T14:23:30.467Z,101333.59
2022-09-12T14:26:05.059Z,101332.25
2022-09-12T14:28:37.574Z,101337.53
2022-09-12T14:31:08.940Z,101337.06
2022-09-12T14:33:48.659Z,101323.44
2022-09-12T14:36:25.721Z,101311.38
2022-09-12T14:38:58.867Z,101308.41
2022-09-12T14:41:33.163Z,101307.53
2022-09-12T14:44:06.054Z,101306.28
2022-09-12T14:46:39.138Z,101294.28
2022-09-12T14:49:13.702Z,101286.56
2022-09-12T14:51:53.598Z,101290.41
2022-09-12T14:54:42.839Z,101283.56
2022-09-12T14:57:36.736Z,101284.31
2022-09-12T15:00:17.833Z,101284.47
2022-09-12T15:02:48.163Z,101281.13
2022-09-12T15:05:21.902Z,101282.13
2022-09-12T15:07:55.435Z,101276.81
2022-09-12T15:10:31.008Z,101282.16
2022-09-12T15:13:14.178Z,101267.69
2022-09-12T15:15:46.841Z,101269.66
2022-09-12T15:18:18.190Z,101272.81
2022-09-12T15:20:50.660Z,101270.53
2022-09-12T15:23:22.485Z,101276.78
2022-09-12T15:25:53.371Z,101276.63
2022-09-12T15:28:26.847Z,101289.28
2022-09-12T15:30:58.166Z,101298.13
2022-09-12T15:33:29.130Z,101305.59
2022-09-12T15:36:00.051Z,101300.09
2022-09-12T15:38:30.926Z,101299.88
2022-09-12T15:41:01.877Z,101301.75
2022-09-12T15:43:34.181Z,101294.38
2022-09-12T15:46:06.772Z,101293.91
2022-09-12T15:48:37.789Z,101286.44
2022-09-12T15:51:15.438Z,101285.72
2022-09-12T15:53:47.939Z,101282.66
2022-09-12T15:56:20.986Z,101295.16
2022-09-12T15:59:00.515Z,101297.94
2022-09-12T16:01:31.013Z,101293.91
2022-09-12T16:04:00.188Z,101294.75
2022-09-12T16:06:36.294Z,101289.31
2022-09-12T16:09:07.972Z,101291.25
2022-09-12T16:11:39.492Z,101290.34
2022-09-12T16:14:14.875Z,101297.47
2022-09-12T16:16:43.895Z,101297.09
2022-09-12T16:19:15.461Z,101294.41
2022-09-12T16:21:46.688Z,101288.84
2022-09-12T16:24:17.793Z,101278.06
2022-09-12T16:26:49.024Z,101272.97
2022-09-12T16:29:21.317Z,101272.47
2022-09-12T16:31:52.221Z,101267.78
2022-09-12T16:34:23.234Z,101270.03
2022-09-12T16:36:54.225Z,101257.75
2022-09-12T16:39:23.041Z,101249.25
2022-09-12T16:41:54.002Z,101242.44
2022-09-12T16:44:26.302Z,101239.19
2022-09-12T16:46:57.211Z,101232.22
2022-09-12T16:49:28.108Z,101226.41
2022-09-12T16:51:57.771Z,101220.41
2022-09-12T16:54:27.786Z,101222.06
2022-09-12T16:56:57.515Z,101209.91
2022-09-12T16:59:28.612Z,101208.59
2022-09-12T17:01:57.225Z,101202.47
2022-09-12T17:04:27.146Z,101193.13
2022-09-12T17:06:59.396Z,101184.47
2022-09-12T17:09:30.336Z,101193.28
2022-09-12T17:12:00.732Z,101183.59
2022-09-12T17:14:31.492Z,101177.88
2022-09-12T17:17:00.097Z,101177.13
2022-09-12T17:19:29.949Z,101174.00
2022-09-12T17:21:59.778Z,101168.41
2022-09-12T17:24:29.602Z,101166.59
2022-09-12T17:26:59.355Z,101166.97
2022-09-12T17:29:31.601Z,101160.84
2022-09-12T17:31:59.866Z,101159.06
2022-09-12T17:34:30.200Z,101147.31
2022-09-12T17:37:00.273Z,101148.47
2022-09-12T17:39:29.986Z,101151.16
2022-09-12T17:42:00.098Z,101143.50
2022-09-12T17:44:31.159Z,101143.81
2022-09-12T17:47:02.986Z,101148.06
2022-09-12T17:49:34.278Z,101146.66
2022-09-12T17:52:04.165Z,101140.06
2022-09-12T17:54:33.658Z,101138.44
2022-09-12T17:57:04.982Z,101143.91
2022-09-12T17:59:35.099Z,101137.88
2022-09-12T18:02:14.425Z,101136.41
2022-09-12T18:04:45.826Z,101133.47
2022-09-12T18:07:14.210Z,101134.84
2022-09-12T18:09:43.738Z,101128.59
2022-09-12T18:12:14.181Z,101126.34
2022-09-12T18:14:45.613Z,101127.47
2022-09-12T18:17:13.654Z,101119.25
2022-09-12T18:19:44.597Z,101119.13
2022-09-12T18:22:13.800Z,101116.78
2022-09-12T18:24:44.529Z,101120.28
2022-09-12T18:27:14.255Z,101118.63
2022-09-12T18:29:55.139Z,101114.16
2022-09-12T18:32:35.402Z,101117.31
2022-09-12T18:35:07.420Z,101103.72
2022-09-12T18:37:38.519Z,101099.00
2022-09-12T18:40:09.529Z,101092.13
2022-09-12T18:42:39.158Z,101093.97
2022-09-12T18:45:11.148Z,101083.09
2022-09-12T18:47:42.285Z,101072.81
2022-09-12T18:50:11.695Z,101081.50
2022-09-12T18:52:41.885Z,101078.00
2022-09-12T18:55:11.932Z,101078.34
2022-09-12T18:57:42.101Z,101073.28
2022-09-12T19:00:14.602Z,101068.97
2022-09-12T19:02:44.593Z,101069.31
2022-09-12T19:05:14.382Z,101064.22
2022-09-12T19:07:43.514Z,101072.34
2022-09-12T19:10:13.104Z,101062.19
2022-09-12T19:12:43.010Z,101074.94
2022-09-12T19:15:14.226Z,101071.66
2022-09-12T19:17:44.979Z,101062.41
2022-09-12T19:20:14.873Z,101059.66
2022-09-12T19:22:44.648Z,101051.84
2022-09-12T19:25:14.599Z,101045.63
2022-09-12T19:27:44.342Z,101043.50
2022-09-12T19:30:15.448Z,101036.41
2022-09-12T19:32:45.601Z,101039.81
2022-09-12T19:35:14.799Z,101031.44
2022-09-12T19:37:43.804Z,101029.94
2022-09-12T19:40:13.612Z,101023.03
2022-09-12T19:42:43.495Z,101024.53
2022-09-12T19:45:13.210Z,101029.13
2022-09-12T19:47:43.344Z,101031.69
2022-09-12T19:50:11.769Z,101032.66
2022-09-12T19:52:42.135Z,101027.63
2022-09-12T19:55:11.185Z,101019.91
2022-09-12T19:57:40.984Z,101028.75
2022-09-12T20:00:12.226Z,101029.38
2022-09-12T20:02:41.468Z,101025.00
2022-09-12T20:05:11.776Z,101022.53
2022-09-12T20:07:40.130Z,101025.91
2022-09-12T20:10:10.225Z,101021.66
2022-09-12T20:12:39.746Z,101014.66
2022-09-12T20:15:11.046Z,101015.78
2022-09-12T20:17:42.383Z,101013.91
2022-09-12T20:20:14.217Z,101019.97
2022-09-12T20:22:44.272Z,101021.03
2022-09-12T20:25:14.379Z,101013.06
2022-09-12T20:27:44.355Z,101011.38
2022-09-12T20:30:14.510Z,101004.69
2022-09-12T20:32:44.799Z,100997.97
2022-09-12T20:35:17.420Z,101003.44
2022-09-12T20:37:48.348Z,100998.97
2022-09-12T20:40:19.505Z,101001.19
2022-09-12T20:42:50.445Z,101001.81
2022-09-12T20:45:21.424Z,100993.09
2022-09-12T20:47:52.287Z,100990.53
2022-09-12T20:50:24.558Z,100985.88
2022-09-12T20:52:55.018Z,100980.31
2022-09-12T20:55:23.666Z,100977.81
2022-09-12T20:57:54.498Z,100969.03
2022-09-12T21:00:25.339Z,100970.84
2022-09-12T21:02:56.648Z,100968.22
2022-09-12T21:05:28.919Z,100970.00
2022-09-12T21:07:58.387Z,100968.13
2022-09-12T21:10:29.261Z,100964.69
2022-09-12T21:13:00.152Z,100968.81
2022-09-12T21:15:31.009Z,100962.59
2022-09-12T21:18:01.893Z,100958.53
2022-09-12T21:20:34.402Z,100962.00
2022-09-12T21:23:04.693Z,100949.75
2022-09-12T21:25:35.550Z,100948.25
2022-09-12T21:28:06.471Z,100946.59
2022-09-12T21:30:37.362Z,100940.63
2022-09-12T21:33:08.284Z,100935.59
2022-09-12T21:35:40.539Z,100934.56
2022-09-12T21:38:10.021Z,100928.03
2022-09-12T21:40:40.899Z,100926.97
2022-09-12T21:43:13.176Z,100924.00
2022-09-12T21:45:44.164Z,100920.91
2022-09-12T21:48:15.182Z,100929.91
2022-09-12T21:50:52.025Z,100923.69
2022-09-12T21:53:22.997Z,100920.28
2022-09-12T21:55:54.359Z,100927.38
2022-09-12T21:58:25.230Z,100931.75
2022-09-12T22:00:56.399Z,100927.22
2022-09-12T22:03:27.602Z,100930.09
2022-09-12T22:06:01.517Z,100930.19
2022-09-12T22:08:33.803Z,100915.94
2022-09-12T22:11:09.379Z,100909.28
2022-09-12T22:13:42.710Z,100905.81
2022-09-12T22:16:13.754Z,100909.22
2022-09-12T22:18:47.038Z,100906.66
2022-09-12T22:21:20.934Z,100896.19
2022-09-12T22:24:09.664Z,100892.72
2022-09-12T22:26:42.461Z,100882.94
2022-09-12T22:29:13.783Z,100887.47
2022-09-12T22:31:44.701Z,100876.19
2022-09-12T22:34:14.843Z,100875.28
2022-09-12T22:36:45.591Z,100872.19
2022-09-12T22:39:14.153Z,100864.47
2022-09-12T22:41:43.482Z,100863.63
2022-09-12T22:44:13.226Z,100859.34
2022-09-12T22:46:42.607Z,100850.84
2022-09-12T22:49:12.759Z,100850.56
2022-09-12T22:51:41.389Z,100846.88
2022-09-12T22:54:12.117Z,100852.13
2022-09-12T22:56:40.857Z,100849.22
2022-09-12T22:59:10.158Z,100842.22
2022-09-12T23:01:39.361Z,100839.50
2022-09-12T23:04:08.660Z,100835.25
2022-09-12T23:06:38.059Z,100834.53
2022-09-12T23:09:07.254Z,100826.66
2022-09-12T23:11:38.232Z,100824.19
2022-09-12T23:14:06.794Z,100809.91
2022-09-12T23:16:36.248Z,100804.09
2022-09-12T23:19:05.624Z,100799.81
2022-09-12T23:21:34.851Z,100788.44
2022-09-12T23:24:05.483Z,100788.44
2022-09-12T23:26:34.348Z,100776.97
2022-09-12T23:29:05.611Z,100777.94
2022-09-12T23:31:35.710Z,100783.13
2022-09-12T23:34:06.847Z,100784.94
2022-09-12T23:36:37.315Z,100781.56
2022-09-12T23:39:06.748Z,100785.00
2022-09-12T23:41:35.944Z,100770.09
2022-09-12T23:44:06.518Z,100765.53
2022-09-12T23:46:35.251Z,100769.81
2022-09-12T23:49:04.269Z,100758.41
2022-09-12T23:51:33.556Z,100757.50
2022-09-12T23:54:03.342Z,100768.25
2022-09-12T23:56:32.652Z,100767.41
2022-09-12T23:59:01.896Z,100766.66
